sensor_id;sensor_type;location;lat;lon;timestamp;pressure;altitude;pressure_sealevel;temperature;humidity
60642;BME280;46837;52.446;-1.930;2024-03-23T00:54:09;100013.47;;;5.36;71.95
60642;BME280;46837;52.446;-1.930;2024-03-23T00:55:09;100017.67;;;5.37;71.92
60642;BME280;46837;52.446;-1.930;2024-03-23T00:56:09;100012.52;;;5.32;72.01
60642;BME280;46837;52.446;-1.930;2024-03-23T00:57:09;100012.10;;;5.30;72.21
60642;BME280;46837;52.446;-1.930;2024-03-23T00:58:09;100012.64;;;5.32;72.11
60642;BME280;46837;52.446;-1.930;2024-03-23T00:59:09;100009.11;;;5.32;72.12
60642;BME280;46837;52.446;-1.930;2024-03-23T01:00:09;100004.75;;;5.31;72.22
60642;BME280;46837;52.446;-1.930;2024-03-23T01:01:09;100001.57;;;5.34;72.07
60642;BME280;46837;52.446;-1.930;2024-03-23T01:02:09;100007.02;;;5.35;72.02
60642;BME280;46837;52.446;-1.930;2024-03-23T01:03:09;100006.70;;;5.34;72.07
60642;BME280;46837;52.446;-1.930;2024-03-23T01:04:09;100008.78;;;5.26;72.25
60642;BME280;46837;52.446;-1.930;2024-03-23T01:05:09;100007.39;;;5.28;72.20
60642;BME280;46837;52.446;-1.930;2024-03-23T01:06:09;100003.40;;;5.28;72.21
60642;BME280;46837;52.446;-1.930;2024-03-23T01:07:09;99999.75;;;5.28;72.14
60642;BME280;46837;52.446;-1.930;2024-03-23T01:08:09;99997.20;;;5.28;72.27
60642;BME280;46837;52.446;-1.930;2024-03-23T01:09:09;99997.04;;;5.28;72.13
60642;BME280;46837;52.446;-1.930;2024-03-23T01:10:09;99996.76;;;5.27;72.19
60642;BME280;46837;52.446;-1.930;2024-03-23T01:11:09;99998.75;;;5.24;72.20
60642;BME280;46837;52.446;-1.930;2024-03-23T01:12:09;99996.01;;;5.25;72.24
60642;BME280;46837;52.446;-1.930;2024-03-23T01:13:09;99998.82;;;5.28;72.16
60642;BME280;46837;52.446;-1.930;2024-03-23T01:14:09;99999.91;;;5.25;72.17
60642;BME280;46837;52.446;-1.930;2024-03-23T01:15:09;99995.73;;;5.22;72.30
60642;BME280;46837;52.446;-1.930;2024-03-23T01:16:09;99992.73;;;5.26;72.30
60642;BME280;46837;52.446;-1.930;2024-03-23T01:17:09;99993.60;;;5.24;72.33
60642;BME280;46837;52.446;-1.930;2024-03-23T01:18:09;99995.55;;;5.26;72.29
60642;BME280;46837;52.446;-1.930;2024-03-23T01:19:09;99986.35;;;5.26;72.37
60642;BME280;46837;52.446;-1.930;2024-03-23T01:20:09;99989.02;;;5.25;72.33
60642;BME280;46837;52.446;-1.930;2024-03-23T01:21:09;99981.95;;;5.24;72.35
60642;BME280;46837;52.446;-1.930;2024-03-23T01:22:09;99990.81;;;5.19;72.33
60642;BME280;46837;52.446;-1.930;2024-03-23T01:23:09;99982.06;;;5.18;72.52
60642;BME280;46837;52.446;-1.930;2024-03-23T01:24:09;99986.65;;;5.23;72.45
60642;BME280;46837;52.446;-1.930;2024-03-23T01:25:09;99984.73;;;5.20;72.50
60642;BME280;46837;52.446;-1.930;2024-03-23T01:26:09;99986.86;;;5.22;72.39
60642;BME280;46837;52.446;-1.930;2024-03-23T01:27:09;99982.50;;;5.27;72.32
60642;BME280;46837;52.446;-1.930;2024-03-23T01:28:09;99987.21;;;5.24;72.36
60642;BME280;46837;52.446;-1.930;2024-03-23T01:29:09;99987.38;;;5.27;72.31
60642;BME280;46837;52.446;-1.930;2024-03-23T01:30:09;99982.85;;;5.23;72.40
60642;BME280;46837;52.446;-1.930;2024-03-23T01:31:09;99977.98;;;5.23;72.42
60642;BME280;46837;52.446;-1.930;2024-03-23T01:32:09;99981.51;;;5.21;72.58
60642;BME280;46837;52.446;-1.930;2024-03-23T01:33:09;99981.37;;;5.20;72.55
60642;BME280;46837;52.446;-1.930;2024-03-23T01:34:09;99982.34;;;5.19;72.57
60642;BME280;46837;52.446;-1.930;2024-03-23T01:35:09;99978.86;;;5.21;72.59
60642;BME280;46837;52.446;-1.930;2024-03-23T01:36:09;99975.54;;;5.20;72.62
60642;BME280;46837;52.446;-1.930;2024-03-23T01:37:09;99971.66;;;5.21;72.59
60642;BME280;46837;52.446;-1.930;2024-03-23T01:38:09;99972.63;;;5.21;72.53
60642;BME280;46837;52.446;-1.930;2024-03-23T01:39:09;99969.41;;;5.20;72.58
60642;BME280;46837;52.446;-1.930;2024-03-23T01:40:09;99966.53;;;5.17;72.55
60642;BME280;46837;52.446;-1.930;2024-03-23T01:41:09;99962.03;;;5.17;72.56
60642;BME280;46837;52.446;-1.930;2024-03-23T01:42:09;99966.39;;;5.18;72.61
60642;BME280;46837;52.446;-1.930;2024-03-23T01:43:09;99962.68;;;5.20;72.64
60642;BME280;46837;52.446;-1.930;2024-03-23T01:44:09;99955.59;;;5.14;72.60
60642;BME280;46837;52.446;-1.930;2024-03-23T01:45:10;99961.98;;;5.11;72.82
60642;BME280;46837;52.446;-1.930;2024-03-23T01:46:09;99959.71;;;5.12;72.86
60642;BME280;46837;52.446;-1.930;2024-03-23T01:47:09;99962.50;;;5.16;72.78
60642;BME280;46837;52.446;-1.930;2024-03-23T01:48:09;99957.13;;;5.13;72.74
60642;BME280;46837;52.446;-1.930;2024-03-23T01:49:09;99953.67;;;5.16;72.74
60642;BME280;46837;52.446;-1.930;2024-03-23T01:50:09;99948.68;;;5.15;72.63
60642;BME280;46837;52.446;-1.930;2024-03-23T01:51:09;99949.38;;;5.13;72.84
60642;BME280;46837;52.446;-1.930;2024-03-23T01:52:09;99952.32;;;5.14;72.89
60642;BME280;46837;52.446;-1.930;2024-03-23T01:53:09;99948.45;;;5.12;72.83
60642;BME280;46837;52.446;-1.930;2024-03-23T01:54:09;99949.70;;;5.10;72.88
60642;BME280;46837;52.446;-1.930;2024-03-23T01:55:09;99945.48;;;5.07;72.98
60642;BME280;46837;52.446;-1.930;2024-03-23T01:56:09;99939.70;;;5.08;72.98
60642;BME280;46837;52.446;-1.930;2024-03-23T01:57:09;99940.71;;;5.05;73.05
60642;BME280;46837;52.446;-1.930;2024-03-23T01:58:09;99942.09;;;5.08;73.01
60642;BME280;46837;52.446;-1.930;2024-03-23T01:59:09;99940.48;;;5.07;72.98
60642;BME280;46837;52.446;-1.930;2024-03-23T02:00:09;99935.85;;;5.06;73.01
60642;BME280;46837;52.446;-1.930;2024-03-23T02:01:09;99937.59;;;5.06;72.92
60642;BME280;46837;52.446;-1.930;2024-03-23T02:02:09;99938.39;;;5.05;72.99
60642;BME280;46837;52.446;-1.930;2024-03-23T02:04:09;99938.62;;;4.98;73.19
60642;BME280;46837;52.446;-1.930;2024-03-23T02:05:09;99928.55;;;4.98;73.17
60642;BME280;46837;52.446;-1.930;2024-03-23T02:06:10;99936.93;;;4.95;73.32
60642;BME280;46837;52.446;-1.930;2024-03-23T02:07:09;99936.78;;;4.96;73.32
60642;BME280;46837;52.446;-1.930;2024-03-23T02:08:09;99935.24;;;4.97;73.24
60642;BME280;46837;52.446;-1.930;2024-03-23T02:09:09;99936.18;;;4.98;73.21
60642;BME280;46837;52.446;-1.930;2024-03-23T02:10:09;99936.15;;;4.99;73.19
60642;BME280;46837;52.446;-1.930;2024-03-23T02:11:09;99930.72;;;4.96;73.28
60642;BME280;46837;52.446;-1.930;2024-03-23T02:12:09;99933.37;;;4.96;73.39
60642;BME280;46837;52.446;-1.930;2024-03-23T02:13:09;99932.78;;;4.98;73.34
60642;BME280;46837;52.446;-1.930;2024-03-23T02:14:09;99934.06;;;5.00;73.40
60642;BME280;46837;52.446;-1.930;2024-03-23T02:15:09;99931.22;;;5.01;73.20
60642;BME280;46837;52.446;-1.930;2024-03-23T02:16:09;99928.98;;;5.03;73.15
60642;BME280;46837;52.446;-1.930;2024-03-23T02:17:09;99929.97;;;5.01;73.19
60642;BME280;46837;52.446;-1.930;2024-03-23T02:18:09;99929.07;;;5.00;73.21
60642;BME280;46837;52.446;-1.930;2024-03-23T02:19:09;99928.28;;;4.99;73.31
60642;BME280;46837;52.446;-1.930;2024-03-23T02:20:10;99923.50;;;4.95;73.46
60642;BME280;46837;52.446;-1.930;2024-03-23T02:21:09;99922.55;;;4.94;73.53
60642;BME280;46837;52.446;-1.930;2024-03-23T02:22:09;99927.12;;;4.95;73.64
60642;BME280;46837;52.446;-1.930;2024-03-23T02:23:13;99924.48;;;4.93;73.50
60642;BME280;46837;52.446;-1.930;2024-03-23T02:24:09;99921.97;;;4.89;73.73
60642;BME280;46837;52.446;-1.930;2024-03-23T02:25:09;99926.77;;;4.89;73.77
60642;BME280;46837;52.446;-1.930;2024-03-23T02:26:09;99923.22;;;4.93;73.73
60642;BME280;46837;52.446;-1.930;2024-03-23T02:27:09;99919.55;;;4.93;73.58
60642;BME280;46837;52.446;-1.930;2024-03-23T02:28:09;99917.30;;;4.91;73.62
60642;BME280;46837;52.446;-1.930;2024-03-23T02:29:09;99920.76;;;4.92;73.58
60642;BME280;46837;52.446;-1.930;2024-03-23T02:30:09;99919.00;;;4.95;73.60
60642;BME280;46837;52.446;-1.930;2024-03-23T02:31:09;99918.46;;;4.95;73.48
60642;BME280;46837;52.446;-1.930;2024-03-23T02:32:09;99925.54;;;4.97;73.49
60642;BME280;46837;52.446;-1.930;2024-03-23T02:33:09;99922.36;;;4.96;73.48
60642;BME280;46837;52.446;-1.930;2024-03-23T02:34:09;99919.54;;;4.95;73.50
60642;BME280;46837;52.446;-1.930;2024-03-23T02:35:09;99922.57;;;4.94;73.57
60642;BME280;46837;52.446;-1.930;2024-03-23T02:36:09;99919.35;;;4.89;73.62
60642;BME280;46837;52.446;-1.930;2024-03-23T02:37:12;99925.58;;;4.91;73.67
60642;BME280;46837;52.446;-1.930;2024-03-23T02:38:09;99924.42;;;4.87;73.70
60642;BME280;46837;52.446;-1.930;2024-03-23T02:39:09;99927.37;;;4.91;73.63
60642;BME280;46837;52.446;-1.930;2024-03-23T02:40:09;99924.87;;;4.92;73.73
60642;BME280;46837;52.446;-1.930;2024-03-23T02:41:09;99928.95;;;4.87;73.74
60642;BME280;46837;52.446;-1.930;2024-03-23T02:42:09;99928.25;;;4.90;73.69
60642;BME280;46837;52.446;-1.930;2024-03-23T02:43:09;99925.19;;;4.90;73.65
60642;BME280;46837;52.446;-1.930;2024-03-23T02:44:09;99921.95;;;4.92;73.58
60642;BME280;46837;52.446;-1.930;2024-03-23T02:45:09;99918.58;;;4.93;73.53
60642;BME280;46837;52.446;-1.930;2024-03-23T02:46:09;99919.48;;;4.93;73.59
60642;BME280;46837;52.446;-1.930;2024-03-23T02:47:09;99921.73;;;4.91;73.64
60642;BME280;46837;52.446;-1.930;2024-03-23T02:48:09;99910.48;;;4.91;73.64
60642;BME280;46837;52.446;-1.930;2024-03-23T02:49:09;99910.25;;;4.92;73.53
60642;BME280;46837;52.446;-1.930;2024-03-23T02:50:09;99908.37;;;4.92;73.55
60642;BME280;46837;52.446;-1.930;2024-03-23T02:51:09;99906.10;;;4.92;73.55
60642;BME280;46837;52.446;-1.930;2024-03-23T02:52:09;99900.13;;;4.91;73.59
60642;BME280;46837;52.446;-1.930;2024-03-23T02:53:09;99903.75;;;4.89;73.60
60642;BME280;46837;52.446;-1.930;2024-03-23T02:54:09;99901.39;;;4.89;73.66
60642;BME280;46837;52.446;-1.930;2024-03-23T02:55:09;99899.55;;;4.82;73.83
60642;BME280;46837;52.446;-1.930;2024-03-23T02:56:09;99901.94;;;4.79;73.90
60642;BME280;46837;52.446;-1.930;2024-03-23T02:57:09;99897.39;;;4.79;73.97
60642;BME280;46837;52.446;-1.930;2024-03-23T02:58:09;99897.72;;;4.79;73.81
60642;BME280;46837;52.446;-1.930;2024-03-23T02:59:09;99892.73;;;4.79;73.93
60642;BME280;46837;52.446;-1.930;2024-03-23T03:00:09;99897.00;;;4.79;73.93
60642;BME280;46837;52.446;-1.930;2024-03-23T03:01:09;99895.02;;;4.77;73.91
60642;BME280;46837;52.446;-1.930;2024-03-23T03:02:09;99895.61;;;4.75;73.88
60642;BME280;46837;52.446;-1.930;2024-03-23T03:03:09;99900.76;;;4.75;73.96
60642;BME280;46837;52.446;-1.930;2024-03-23T03:04:09;99900.27;;;4.77;73.88
60642;BME280;46837;52.446;-1.930;2024-03-23T03:05:09;99894.21;;;4.80;73.74
60642;BME280;46837;52.446;-1.930;2024-03-23T03:06:09;99894.80;;;4.78;73.73
60642;BME280;46837;52.446;-1.930;2024-03-23T03:07:09;99895.94;;;4.78;73.76
60642;BME280;46837;52.446;-1.930;2024-03-23T03:08:09;99893.29;;;4.78;73.86
60642;BME280;46837;52.446;-1.930;2024-03-23T03:09:09;99893.66;;;4.77;73.78
60642;BME280;46837;52.446;-1.930;2024-03-23T03:10:09;99886.46;;;4.75;73.91
60642;BME280;46837;52.446;-1.930;2024-03-23T03:11:09;99890.59;;;4.76;73.81
60642;BME280;46837;52.446;-1.930;2024-03-23T03:12:09;99891.31;;;4.72;73.92
60642;BME280;46837;52.446;-1.930;2024-03-23T03:13:09;99892.21;;;4.73;73.89
60642;BME280;46837;52.446;-1.930;2024-03-23T03:14:10;99885.12;;;4.71;73.84
60642;BME280;46837;52.446;-1.930;2024-03-23T03:15:09;99883.75;;;4.72;73.83
60642;BME280;46837;52.446;-1.930;2024-03-23T03:16:11;99886.23;;;4.72;73.81
60642;BME280;46837;52.446;-1.930;2024-03-23T03:17:09;99887.23;;;4.71;73.79
60642;BME280;46837;52.446;-1.930;2024-03-23T03:18:09;99888.60;;;4.74;73.80
60642;BME280;46837;52.446;-1.930;2024-03-23T03:19:09;99887.70;;;4.72;73.80
60642;BME280;46837;52.446;-1.930;2024-03-23T03:20:09;99886.18;;;4.77;73.85
60642;BME280;46837;52.446;-1.930;2024-03-23T03:21:11;99891.85;;;4.74;73.76
60642;BME280;46837;52.446;-1.930;2024-03-23T03:22:09;99892.21;;;4.73;73.83
60642;BME280;46837;52.446;-1.930;2024-03-23T03:23:09;99896.86;;;4.72;73.91
60642;BME280;46837;52.446;-1.930;2024-03-23T03:24:09;99894.47;;;4.70;73.76
60642;BME280;46837;52.446;-1.930;2024-03-23T03:25:09;99890.04;;;4.72;73.88
60642;BME280;46837;52.446;-1.930;2024-03-23T03:26:09;99892.72;;;4.69;73.87
60642;BME280;46837;52.446;-1.930;2024-03-23T03:27:09;99888.32;;;4.71;73.87
60642;BME280;46837;52.446;-1.930;2024-03-23T03:28:09;99888.59;;;4.69;73.91
60642;BME280;46837;52.446;-1.930;2024-03-23T03:29:09;99888.39;;;4.69;73.90
60642;BME280;46837;52.446;-1.930;2024-03-23T03:30:09;99886.93;;;4.72;73.82
60642;BME280;46837;52.446;-1.930;2024-03-23T03:31:09;99877.74;;;4.69;73.80
60642;BME280;46837;52.446;-1.930;2024-03-23T03:32:09;99885.28;;;4.70;73.78
60642;BME280;46837;52.446;-1.930;2024-03-23T03:33:09;99881.92;;;4.71;73.73
60642;BME280;46837;52.446;-1.930;2024-03-23T03:34:09;99878.16;;;4.72;73.72
60642;BME280;46837;52.446;-1.930;2024-03-23T03:35:09;99883.11;;;4.75;73.66
60642;BME280;46837;52.446;-1.930;2024-03-23T03:36:09;99876.07;;;4.75;73.61
60642;BME280;46837;52.446;-1.930;2024-03-23T03:37:09;99874.61;;;4.70;73.70
60642;BME280;46837;52.446;-1.930;2024-03-23T03:38:09;99875.10;;;4.72;73.73
60642;BME280;46837;52.446;-1.930;2024-03-23T03:39:09;99867.81;;;4.73;73.70
60642;BME280;46837;52.446;-1.930;2024-03-23T03:40:09;99867.93;;;4.74;73.56
60642;BME280;46837;52.446;-1.930;2024-03-23T03:41:09;99868.54;;;4.75;73.50
60642;BME280;46837;52.446;-1.930;2024-03-23T03:42:09;99862.76;;;4.71;73.64
60642;BME280;46837;52.446;-1.930;2024-03-23T03:43:09;99861.04;;;4.74;73.60
60642;BME280;46837;52.446;-1.930;2024-03-23T03:44:09;99862.71;;;4.70;73.62
60642;BME280;46837;52.446;-1.930;2024-03-23T03:45:09;99858.18;;;4.69;73.68
60642;BME280;46837;52.446;-1.930;2024-03-23T03:46:09;99857.96;;;4.68;73.70
60642;BME280;46837;52.446;-1.930;2024-03-23T03:47:09;99859.95;;;4.73;73.63
60642;BME280;46837;52.446;-1.930;2024-03-23T03:48:09;99856.56;;;4.73;73.62
60642;BME280;46837;52.446;-1.930;2024-03-23T03:49:09;99860.65;;;4.71;73.62
60642;BME280;46837;52.446;-1.930;2024-03-23T03:50:10;99858.17;;;4.71;73.59
60642;BME280;46837;52.446;-1.930;2024-03-23T03:51:09;99851.11;;;4.69;73.62
60642;BME280;46837;52.446;-1.930;2024-03-23T03:52:09;99858.69;;;4.70;73.60
60642;BME280;46837;52.446;-1.930;2024-03-23T03:53:09;99853.71;;;4.69;73.55
60642;BME280;46837;52.446;-1.930;2024-03-23T03:54:09;99853.88;;;4.68;73.58
60642;BME280;46837;52.446;-1.930;2024-03-23T03:55:13;99850.74;;;4.68;73.69
60642;BME280;46837;52.446;-1.930;2024-03-23T03:56:09;99851.38;;;4.67;73.59
60642;BME280;46837;52.446;-1.930;2024-03-23T03:57:09;99850.44;;;4.69;73.60
60642;BME280;46837;52.446;-1.930;2024-03-23T03:58:09;99846.80;;;4.65;73.59
60642;BME280;46837;52.446;-1.930;2024-03-23T03:59:09;99850.50;;;4.66;73.72
60642;BME280;46837;52.446;-1.930;2024-03-23T04:00:09;99846.61;;;4.59;73.88
60642;BME280;46837;52.446;-1.930;2024-03-23T04:01:09;99849.91;;;4.61;73.78
60642;BME280;46837;52.446;-1.930;2024-03-23T04:02:09;99845.80;;;4.60;73.84
60642;BME280;46837;52.446;-1.930;2024-03-23T04:03:09;99846.22;;;4.61;73.78
60642;BME280;46837;52.446;-1.930;2024-03-23T04:04:09;99845.80;;;4.64;73.73
60642;BME280;46837;52.446;-1.930;2024-03-23T04:05:09;99841.19;;;4.64;73.66
60642;BME280;46837;52.446;-1.930;2024-03-23T04:06:09;99841.63;;;4.67;73.64
60642;BME280;46837;52.446;-1.930;2024-03-23T04:07:09;99840.46;;;4.68;73.56
60642;BME280;46837;52.446;-1.930;2024-03-23T04:08:09;99837.01;;;4.68;73.57
60642;BME280;46837;52.446;-1.930;2024-03-23T04:09:09;99837.91;;;4.70;73.49
60642;BME280;46837;52.446;-1.930;2024-03-23T04:10:10;99835.46;;;4.69;73.42
60642;BME280;46837;52.446;-1.930;2024-03-23T04:11:09;99837.70;;;4.65;73.55
60642;BME280;46837;52.446;-1.930;2024-03-23T04:12:09;99839.93;;;4.68;73.60
60642;BME280;46837;52.446;-1.930;2024-03-23T04:13:09;99837.56;;;4.69;73.58
60642;BME280;46837;52.446;-1.930;2024-03-23T04:14:09;99839.58;;;4.65;73.65
60642;BME280;46837;52.446;-1.930;2024-03-23T04:15:09;99833.34;;;4.63;73.76
60642;BME280;46837;52.446;-1.930;2024-03-23T04:16:09;99835.41;;;4.66;73.75
60642;BME280;46837;52.446;-1.930;2024-03-23T04:17:09;99833.51;;;4.64;73.85
60642;BME280;46837;52.446;-1.930;2024-03-23T04:18:09;99833.70;;;4.65;73.79
60642;BME280;46837;52.446;-1.930;2024-03-23T04:19:09;99831.62;;;4.66;73.79
60642;BME280;46837;52.446;-1.930;2024-03-23T04:20:13;99835.64;;;4.65;73.89
60642;BME280;46837;52.446;-1.930;2024-03-23T04:21:09;99832.82;;;4.67;73.82
60642;BME280;46837;52.446;-1.930;2024-03-23T04:22:09;99833.04;;;4.68;73.79
60642;BME280;46837;52.446;-1.930;2024-03-23T04:23:09;99832.95;;;4.68;73.86
60642;BME280;46837;52.446;-1.930;2024-03-23T04:24:09;99832.12;;;4.68;73.81
60642;BME280;46837;52.446;-1.930;2024-03-23T04:25:09;99832.61;;;4.68;73.83
60642;BME280;46837;52.446;-1.930;2024-03-23T04:26:09;99830.35;;;4.68;73.93
60642;BME280;46837;52.446;-1.930;2024-03-23T04:27:09;99831.75;;;4.68;74.02
60642;BME280;46837;52.446;-1.930;2024-03-23T04:28:09;99828.98;;;4.67;73.94
60642;BME280;46837;52.446;-1.930;2024-03-23T04:29:09;99828.96;;;4.67;74.03
60642;BME280;46837;52.446;-1.930;2024-03-23T04:30:12;99829.86;;;4.65;74.07
60642;BME280;46837;52.446;-1.930;2024-03-23T04:31:09;99826.85;;;4.64;74.20
60642;BME280;46837;52.446;-1.930;2024-03-23T04:32:09;99829.91;;;4.65;74.12
60642;BME280;46837;52.446;-1.930;2024-03-23T04:33:09;99827.68;;;4.59;74.35
60642;BME280;46837;52.446;-1.930;2024-03-23T04:34:09;99827.13;;;4.64;74.31
60642;BME280;46837;52.446;-1.930;2024-03-23T04:35:13;99821.93;;;4.66;74.23
60642;BME280;46837;52.446;-1.930;2024-03-23T04:36:09;99824.81;;;4.65;74.16
60642;BME280;46837;52.446;-1.930;2024-03-23T04:37:09;99822.30;;;4.63;74.34
60642;BME280;46837;52.446;-1.930;2024-03-23T04:38:09;99823.30;;;4.65;74.36
60642;BME280;46837;52.446;-1.930;2024-03-23T04:39:09;99823.67;;;4.66;74.32
60642;BME280;46837;52.446;-1.930;2024-03-23T04:40:09;99821.01;;;4.67;74.30
60642;BME280;46837;52.446;-1.930;2024-03-23T04:41:09;99819.91;;;4.63;74.31
60642;BME280;46837;52.446;-1.930;2024-03-23T04:42:09;99820.98;;;4.61;74.51
60642;BME280;46837;52.446;-1.930;2024-03-23T04:43:09;99822.26;;;4.62;74.47
60642;BME280;46837;52.446;-1.930;2024-03-23T04:44:09;99822.07;;;4.61;74.44
60642;BME280;46837;52.446;-1.930;2024-03-23T04:45:09;99818.27;;;4.60;74.44
60642;BME280;46837;52.446;-1.930;2024-03-23T04:46:09;99818.27;;;4.59;74.50
60642;BME280;46837;52.446;-1.930;2024-03-23T04:47:09;99816.23;;;4.58;74.51
60642;BME280;46837;52.446;-1.930;2024-03-23T04:48:09;99821.20;;;4.58;74.68
60642;BME280;46837;52.446;-1.930;2024-03-23T04:49:09;99813.48;;;4.56;74.69
60642;BME280;46837;52.446;-1.930;2024-03-23T04:50:09;99816.34;;;4.55;74.77
60642;BME280;46837;52.446;-1.930;2024-03-23T04:51:09;99814.84;;;4.57;74.66
60642;BME280;46837;52.446;-1.930;2024-03-23T04:52:09;99815.42;;;4.55;74.67
60642;BME280;46837;52.446;-1.930;2024-03-23T04:53:09;99807.62;;;4.58;74.61
60642;BME280;46837;52.446;-1.930;2024-03-23T04:54:09;99811.82;;;4.54;74.68
60642;BME280;46837;52.446;-1.930;2024-03-23T04:55:09;99811.71;;;4.54;74.72
60642;BME280;46837;52.446;-1.930;2024-03-23T04:56:09;99811.80;;;4.57;74.71
60642;BME280;46837;52.446;-1.930;2024-03-23T04:57:09;99808.50;;;4.56;74.69
60642;BME280;46837;52.446;-1.930;2024-03-23T04:58:09;99812.43;;;4.53;74.74
60642;BME280;46837;52.446;-1.930;2024-03-23T04:59:09;99817.79;;;4.55;74.71
60642;BME280;46837;52.446;-1.930;2024-03-23T05:00:13;99815.88;;;4.54;74.67
60642;BME280;46837;52.446;-1.930;2024-03-23T05:01:09;99820.13;;;4.56;74.60
60642;BME280;46837;52.446;-1.930;2024-03-23T05:02:09;99818.06;;;4.58;74.58
60642;BME280;46837;52.446;-1.930;2024-03-23T05:03:09;99815.86;;;4.61;74.47
60642;BME280;46837;52.446;-1.930;2024-03-23T05:04:09;99813.21;;;4.56;74.48
60642;BME280;46837;52.446;-1.930;2024-03-23T05:05:10;99820.38;;;4.59;74.56
60642;BME280;46837;52.446;-1.930;2024-03-23T05:06:09;99815.72;;;4.57;74.53
60642;BME280;46837;52.446;-1.930;2024-03-23T05:07:09;99813.24;;;4.58;74.59
60642;BME280;46837;52.446;-1.930;2024-03-23T05:08:09;99810.27;;;4.60;74.45
60642;BME280;46837;52.446;-1.930;2024-03-23T05:09:14;99802.48;;;4.61;74.42
60642;BME280;46837;52.446;-1.930;2024-03-23T05:10:10;99812.80;;;4.60;74.52
60642;BME280;46837;52.446;-1.930;2024-03-23T05:11:09;99810.06;;;4.58;74.61
60642;BME280;46837;52.446;-1.930;2024-03-23T05:12:09;99807.36;;;4.63;74.57
60642;BME280;46837;52.446;-1.930;2024-03-23T05:13:09;99809.71;;;4.69;74.42
60642;BME280;46837;52.446;-1.930;2024-03-23T05:14:09;99809.14;;;4.76;74.30
60642;BME280;46837;52.446;-1.930;2024-03-23T05:15:09;99804.12;;;4.77;74.26
60642;BME280;46837;52.446;-1.930;2024-03-23T05:16:09;99806.31;;;4.78;74.25
60642;BME280;46837;52.446;-1.930;2024-03-23T05:17:09;99801.97;;;4.80;74.17
60642;BME280;46837;52.446;-1.930;2024-03-23T05:18:09;99806.52;;;4.78;73.93
60642;BME280;46837;52.446;-1.930;2024-03-23T05:19:09;99803.88;;;4.78;74.03
60642;BME280;46837;52.446;-1.930;2024-03-23T05:20:12;99798.45;;;4.77;73.99
60642;BME280;46837;52.446;-1.930;2024-03-23T05:21:09;99808.95;;;4.80;74.19
60642;BME280;46837;52.446;-1.930;2024-03-23T05:22:09;99801.65;;;4.81;74.01
60642;BME280;46837;52.446;-1.930;2024-03-23T05:23:09;99805.40;;;4.79;73.97
60642;BME280;46837;52.446;-1.930;2024-03-23T05:24:09;99806.66;;;4.79;74.05
60642;BME280;46837;52.446;-1.930;2024-03-23T05:25:09;99808.88;;;4.82;74.07
60642;BME280;46837;52.446;-1.930;2024-03-23T05:26:09;99806.22;;;4.76;74.10
60642;BME280;46837;52.446;-1.930;2024-03-23T05:27:09;99804.26;;;4.81;74.09
60642;BME280;46837;52.446;-1.930;2024-03-23T05:28:09;99794.22;;;4.80;74.00
60642;BME280;46837;52.446;-1.930;2024-03-23T05:29:09;99795.60;;;4.73;74.02
60642;BME280;46837;52.446;-1.930;2024-03-23T05:30:09;99797.06;;;4.76;74.08
60642;BME280;46837;52.446;-1.930;2024-03-23T05:31:09;99797.14;;;4.77;73.96
60642;BME280;46837;52.446;-1.930;2024-03-23T05:32:09;99795.48;;;4.75;73.92
60642;BME280;46837;52.446;-1.930;2024-03-23T05:33:09;99788.96;;;4.74;73.89
60642;BME280;46837;52.446;-1.930;2024-03-23T05:34:09;99789.52;;;4.75;73.89
60642;BME280;46837;52.446;-1.930;2024-03-23T05:35:09;99787.31;;;4.73;73.92
60642;BME280;46837;52.446;-1.930;2024-03-23T05:36:09;99792.89;;;4.71;74.06
60642;BME280;46837;52.446;-1.930;2024-03-23T05:37:09;99793.98;;;4.74;74.08
60642;BME280;46837;52.446;-1.930;2024-03-23T05:38:09;99784.42;;;4.69;74.08
60642;BME280;46837;52.446;-1.930;2024-03-23T05:39:09;99781.27;;;4.69;74.09
60642;BME280;46837;52.446;-1.930;2024-03-23T05:40:09;99779.02;;;4.69;74.06
60642;BME280;46837;52.446;-1.930;2024-03-23T05:41:09;99777.95;;;4.68;74.15
60642;BME280;46837;52.446;-1.930;2024-03-23T05:42:09;99781.04;;;4.68;74.03
60642;BME280;46837;52.446;-1.930;2024-03-23T05:43:09;99785.02;;;4.66;74.04
60642;BME280;46837;52.446;-1.930;2024-03-23T05:44:09;99780.46;;;4.66;74.22
60642;BME280;46837;52.446;-1.930;2024-03-23T05:45:09;99783.73;;;4.65;74.16
60642;BME280;46837;52.446;-1.930;2024-03-23T05:46:09;99778.19;;;4.64;74.14
60642;BME280;46837;52.446;-1.930;2024-03-23T05:47:09;99782.34;;;4.65;74.11
60642;BME280;46837;52.446;-1.930;2024-03-23T05:48:09;99781.61;;;4.66;74.11
60642;BME280;46837;52.446;-1.930;2024-03-23T05:49:09;99785.28;;;4.66;74.10
60642;BME280;46837;52.446;-1.930;2024-03-23T05:50:09;99784.54;;;4.66;74.04
60642;BME280;46837;52.446;-1.930;2024-03-23T05:51:09;99784.14;;;4.66;73.97
60642;BME280;46837;52.446;-1.930;2024-03-23T05:52:09;99784.68;;;4.69;74.01
60642;BME280;46837;52.446;-1.930;2024-03-23T05:53:09;99785.31;;;4.68;73.90
60642;BME280;46837;52.446;-1.930;2024-03-23T05:54:09;99789.02;;;4.67;73.88
60642;BME280;46837;52.446;-1.930;2024-03-23T05:55:09;99785.61;;;4.67;74.04
60642;BME280;46837;52.446;-1.930;2024-03-23T05:56:09;99786.58;;;4.66;74.07
60642;BME280;46837;52.446;-1.930;2024-03-23T05:57:10;99784.11;;;4.64;74.08
60642;BME280;46837;52.446;-1.930;2024-03-23T05:58:09;99785.10;;;4.65;74.07
60642;BME280;46837;52.446;-1.930;2024-03-23T05:59:09;99777.19;;;4.65;74.05
60642;BME280;46837;52.446;-1.930;2024-03-23T06:00:09;99785.71;;;4.56;74.35
60642;BME280;46837;52.446;-1.930;2024-03-23T06:01:09;99782.33;;;4.60;74.34
60642;BME280;46837;52.446;-1.930;2024-03-23T06:02:09;99776.94;;;4.64;74.18
60642;BME280;46837;52.446;-1.930;2024-03-23T06:03:09;99786.45;;;4.62;74.10
60642;BME280;46837;52.446;-1.930;2024-03-23T06:04:09;99783.34;;;4.61;74.12
60642;BME280;46837;52.446;-1.930;2024-03-23T06:05:09;99780.37;;;4.62;74.17
60642;BME280;46837;52.446;-1.930;2024-03-23T06:06:13;99777.05;;;4.63;74.17
60642;BME280;46837;52.446;-1.930;2024-03-23T06:07:15;99779.44;;;4.63;74.15
60642;BME280;46837;52.446;-1.930;2024-03-23T06:08:09;99779.37;;;4.65;74.08
60642;BME280;46837;52.446;-1.930;2024-03-23T06:09:09;99780.30;;;4.66;74.03
60642;BME280;46837;52.446;-1.930;2024-03-23T06:10:09;99771.81;;;4.67;74.01
60642;BME280;46837;52.446;-1.930;2024-03-23T06:11:10;99771.43;;;4.66;74.06
60642;BME280;46837;52.446;-1.930;2024-03-23T06:12:09;99773.21;;;4.61;74.20